Aérodrome :
LOGIN :

S'inscrire | Disclaimer

   EN    FR    IT 

 










Légende :    VFR   VFR Marginal   IFR   IFR Intensif   IFR Très Intensif
Visi : 
Plafond : 
>= 8 km
>= 3000ft
5 à 8 km
1000 à 3000 ft
1500m à 5 km
500 à 1000 ft
800 à 1500m
200 à 500 ft
< 800m
< 200 ft
Symboles :   Orages  Brouillard  Fortes neiges  Fortes précipitations  Vent > 20 kt
SIGMETs :   Divers  Orages  Givrage  Turbulence  Onde Orograph.  Cendres Volcan.






- Altitude de l'aérodrome : 335 ft
- Code IATA : BEG


LYBE - Belgrade Nikola Tesla

DERNIER METAR :
  • 151900Z 05003KT CAVOK 18/12 Q1014 NOSIG

METARs EXPIRÉS :
  • 151830Z 07005KT CAVOK 18/12 Q1014 NOSIG
  • 151800Z 06004KT CAVOK 19/12 Q1014 NOSIG
  • 151730Z 06004KT CAVOK 19/12 Q1014 NOSIG
  • 151700Z 06004KT CAVOK 20/12 Q1014 NOSIG
  • 151630Z 05003KT CAVOK 21/12 Q1014 NOSIG

TAF TAF LYBE
Valide du 15 à 18h jusqu'au 16 à 18h UTC


151700Z 1518/1618 20005KT CAVOK TX28/1613Z TN12/1604Z
BECMG 1600/1602 2000 BR
BECMG 1602/1604 0600 FG
TEMPO 1604/1606 0300
BECMG 1606/1608 CAVOK



MET'MAP, la Météo Aéronautique d'un coup d'oeil ! - Copyright ORBIFLY Décembre 2007 - Disclaimer

ORBIFLY MET'MAP TEAM :

Programmation & Développement : Alexandra Zaïnal
Conception & Développement : Baudouin d'Aumeries
Co-Programmation & Développement : Marc-Olivier Méhu
Soutien technique & logistique : Manuel Goepfert

Contact : metmap@orbifly.com




SOURCES & CREDITS :

   NOAA